sensor_id;sensor_type;location;lat;lon;timestamp;P1;durP1;ratioP1;P2;durP2;ratioP2
13712;SDS011;6928;50.546;7.120;2022-09-01T00:01:24;2.05;;;1.80;;
13712;SDS011;6928;50.546;7.120;2022-09-01T00:03:51;2.20;;;2.10;;
13712;SDS011;6928;50.546;7.120;2022-09-01T00:06:19;2.38;;;1.95;;
13712;SDS011;6928;50.546;7.120;2022-09-01T00:08:48;3.65;;;2.10;;
13712;SDS011;6928;50.546;7.120;2022-09-01T00:11:16;1.83;;;1.73;;
13712;SDS011;6928;50.546;7.120;2022-09-01T00:13:44;5.18;;;2.15;;
13712;SDS011;6928;50.546;7.120;2022-09-01T00:16:12;2.60;;;2.40;;
13712;SDS011;6928;50.546;7.120;2022-09-01T00:18:42;2.45;;;2.25;;
13712;SDS011;6928;50.546;7.120;2022-09-01T00:21:11;2.00;;;1.90;;
13712;SDS011;6928;50.546;7.120;2022-09-01T00:23:39;1.88;;;1.77;;
13712;SDS011;6928;50.546;7.120;2022-09-01T00:26:05;3.50;;;1.90;;
13712;SDS011;6928;50.546;7.120;2022-09-01T00:28:34;2.72;;;2.00;;
13712;SDS011;6928;50.546;7.120;2022-09-01T00:31:03;2.10;;;2.00;;
13712;SDS011;6928;50.546;7.120;2022-09-01T00:33:31;4.75;;;1.90;;
13712;SDS011;6928;50.546;7.120;2022-09-01T00:35:59;1.90;;;1.80;;
13712;SDS011;6928;50.546;7.120;2022-09-01T00:38:26;1.92;;;1.83;;
13712;SDS011;6928;50.546;7.120;2022-09-01T00:40:53;2.08;;;1.98;;
13712;SDS011;6928;50.546;7.120;2022-09-01T00:43:21;2.28;;;2.08;;
13712;SDS011;6928;50.546;7.120;2022-09-01T00:46:02;2.10;;;1.90;;
13712;SDS011;6928;50.546;7.120;2022-09-01T00:48:30;2.38;;;2.17;;
13712;SDS011;6928;50.546;7.120;2022-09-01T00:50:57;2.10;;;2.00;;
13712;SDS011;6928;50.546;7.120;2022-09-01T00:53:25;2.00;;;1.90;;
13712;SDS011;6928;50.546;7.120;2022-09-01T00:55:52;2.03;;;1.92;;
13712;SDS011;6928;50.546;7.120;2022-09-01T00:58:20;2.05;;;1.95;;
13712;SDS011;6928;50.546;7.120;2022-09-01T01:00:47;2.10;;;1.98;;
13712;SDS011;6928;50.546;7.120;2022-09-01T01:03:17;2.65;;;2.25;;
13712;SDS011;6928;50.546;7.120;2022-09-01T01:05:45;2.17;;;2.08;;
13712;SDS011;6928;50.546;7.120;2022-09-01T01:08:19;2.40;;;2.25;;
13712;SDS011;6928;50.546;7.120;2022-09-01T01:10:58;2.22;;;2.08;;
13712;SDS011;6928;50.546;7.120;2022-09-01T01:13:26;2.20;;;2.10;;
13712;SDS011;6928;50.546;7.120;2022-09-01T01:15:56;2.20;;;2.00;;
13712;SDS011;6928;50.546;7.120;2022-09-01T01:18:26;2.10;;;2.00;;
13712;SDS011;6928;50.546;7.120;2022-09-01T01:20:56;2.35;;;1.83;;
13712;SDS011;6928;50.546;7.120;2022-09-01T01:23:47;5.05;;;2.03;;
13712;SDS011;6928;50.546;7.120;2022-09-01T01:26:22;1.98;;;1.88;;
13712;SDS011;6928;50.546;7.120;2022-09-01T01:28:48;3.47;;;1.90;;
13712;SDS011;6928;50.546;7.120;2022-09-01T01:31:16;2.55;;;2.35;;
13712;SDS011;6928;50.546;7.120;2022-09-01T01:33:47;2.17;;;2.08;;
13712;SDS011;6928;50.546;7.120;2022-09-01T01:36:18;2.08;;;1.98;;
13712;SDS011;6928;50.546;7.120;2022-09-01T01:38:55;2.40;;;2.20;;
13712;SDS011;6928;50.546;7.120;2022-09-01T01:41:27;2.22;;;2.13;;
13712;SDS011;6928;50.546;7.120;2022-09-01T01:43:56;3.50;;;2.10;;
13712;SDS011;6928;50.546;7.120;2022-09-01T01:46:24;1.80;;;1.70;;
13712;SDS011;6928;50.546;7.120;2022-09-01T01:48:51;2.20;;;2.10;;
13712;SDS011;6928;50.546;7.120;2022-09-01T01:51:19;2.45;;;2.25;;
13712;SDS011;6928;50.546;7.120;2022-09-01T01:53:50;2.45;;;2.30;;
13712;SDS011;6928;50.546;7.120;2022-09-01T01:56:19;2.40;;;2.20;;
13712;SDS011;6928;50.546;7.120;2022-09-01T01:58:51;1.92;;;1.80;;
13712;SDS011;6928;50.546;7.120;2022-09-01T02:01:20;2.08;;;1.98;;
13712;SDS011;6928;50.546;7.120;2022-09-01T02:03:48;2.95;;;2.30;;
13712;SDS011;6928;50.546;7.120;2022-09-01T02:06:18;2.10;;;2.00;;
13712;SDS011;6928;50.546;7.120;2022-09-01T02:08:49;2.33;;;2.13;;
13712;SDS011;6928;50.546;7.120;2022-09-01T02:11:20;2.05;;;1.95;;
13712;SDS011;6928;50.546;7.120;2022-09-01T02:13:47;2.03;;;1.90;;
13712;SDS011;6928;50.546;7.120;2022-09-01T02:16:16;2.35;;;1.90;;
13712;SDS011;6928;50.546;7.120;2022-09-01T02:18:45;2.03;;;1.92;;
13712;SDS011;6928;50.546;7.120;2022-09-01T02:21:14;1.85;;;1.75;;
13712;SDS011;6928;50.546;7.120;2022-09-01T02:23:44;1.90;;;1.80;;
13712;SDS011;6928;50.546;7.120;2022-09-01T02:26:13;2.22;;;2.03;;
13712;SDS011;6928;50.546;7.120;2022-09-01T02:28:43;2.17;;;2.03;;
13712;SDS011;6928;50.546;7.120;2022-09-01T02:31:13;3.28;;;2.17;;
13712;SDS011;6928;50.546;7.120;2022-09-01T02:33:41;2.20;;;2.00;;
13712;SDS011;6928;50.546;7.120;2022-09-01T02:36:10;2.30;;;2.20;;
13712;SDS011;6928;50.546;7.120;2022-09-01T02:38:41;2.05;;;1.95;;
13712;SDS011;6928;50.546;7.120;2022-09-01T02:41:10;5.28;;;1.73;;
13712;SDS011;6928;50.546;7.120;2022-09-01T02:43:38;2.05;;;1.60;;
13712;SDS011;6928;50.546;7.120;2022-09-01T02:46:07;1.80;;;1.70;;
13712;SDS011;6928;50.546;7.120;2022-09-01T02:48:37;1.73;;;1.63;;
13712;SDS011;6928;50.546;7.120;2022-09-01T02:51:09;2.08;;;1.95;;
13712;SDS011;6928;50.546;7.120;2022-09-01T02:53:39;2.00;;;1.90;;
13712;SDS011;6928;50.546;7.120;2022-09-01T02:56:08;1.92;;;1.83;;
13712;SDS011;6928;50.546;7.120;2022-09-01T02:58:38;2.30;;;1.63;;
13712;SDS011;6928;50.546;7.120;2022-09-01T03:01:11;3.42;;;2.00;;
13712;SDS011;6928;50.546;7.120;2022-09-01T03:03:45;2.25;;;2.05;;
13712;SDS011;6928;50.546;7.120;2022-09-01T03:06:13;2.10;;;2.00;;
13712;SDS011;6928;50.546;7.120;2022-09-01T03:08:43;1.90;;;1.80;;
13712;SDS011;6928;50.546;7.120;2022-09-01T03:11:10;2.10;;;2.00;;
13712;SDS011;6928;50.546;7.120;2022-09-01T03:13:38;1.90;;;1.80;;
13712;SDS011;6928;50.546;7.120;2022-09-01T03:16:06;2.20;;;2.10;;
13712;SDS011;6928;50.546;7.120;2022-09-01T03:18:34;1.92;;;1.83;;
13712;SDS011;6928;50.546;7.120;2022-09-01T03:21:00;1.90;;;1.70;;
13712;SDS011;6928;50.546;7.120;2022-09-01T03:23:29;2.03;;;1.80;;
13712;SDS011;6928;50.546;7.120;2022-09-01T03:25:58;2.00;;;1.90;;
13712;SDS011;6928;50.546;7.120;2022-09-01T03:28:26;1.95;;;1.73;;
13712;SDS011;6928;50.546;7.120;2022-09-01T03:30:54;2.15;;;1.95;;
13712;SDS011;6928;50.546;7.120;2022-09-01T03:33:23;1.70;;;1.60;;
13712;SDS011;6928;50.546;7.120;2022-09-01T03:35:52;1.98;;;1.88;;
13712;SDS011;6928;50.546;7.120;2022-09-01T03:38:20;1.80;;;1.70;;
13712;SDS011;6928;50.546;7.120;2022-09-01T03:40:49;3.35;;;1.67;;
13712;SDS011;6928;50.546;7.120;2022-09-01T03:43:25;1.92;;;1.70;;
13712;SDS011;6928;50.546;7.120;2022-09-01T03:45:53;1.75;;;1.65;;
13712;SDS011;6928;50.546;7.120;2022-09-01T03:48:21;1.95;;;1.80;;
13712;SDS011;6928;50.546;7.120;2022-09-01T03:50:52;2.20;;;1.50;;
13712;SDS011;6928;50.546;7.120;2022-09-01T03:53:20;3.70;;;1.73;;
13712;SDS011;6928;50.546;7.120;2022-09-01T03:55:52;2.08;;;1.90;;
13712;SDS011;6928;50.546;7.120;2022-09-01T03:58:22;2.20;;;2.00;;
13712;SDS011;6928;50.546;7.120;2022-09-01T04:00:53;3.05;;;2.03;;
13712;SDS011;6928;50.546;7.120;2022-09-01T04:03:26;1.90;;;1.80;;
13712;SDS011;6928;50.546;7.120;2022-09-01T04:05:56;2.00;;;1.90;;
13712;SDS011;6928;50.546;7.120;2022-09-01T04:08:24;2.00;;;1.80;;
13712;SDS011;6928;50.546;7.120;2022-09-01T04:10:57;2.05;;;1.85;;
13712;SDS011;6928;50.546;7.120;2022-09-01T04:13:27;3.85;;;1.83;;
13712;SDS011;6928;50.546;7.120;2022-09-01T04:15:59;1.98;;;1.88;;
13712;SDS011;6928;50.546;7.120;2022-09-01T04:18:34;1.90;;;1.80;;
13712;SDS011;6928;50.546;7.120;2022-09-01T04:21:00;2.40;;;2.10;;
13712;SDS011;6928;50.546;7.120;2022-09-01T04:23:28;5.88;;;1.90;;
13712;SDS011;6928;50.546;7.120;2022-09-01T04:25:59;1.85;;;1.75;;
13712;SDS011;6928;50.546;7.120;2022-09-01T04:28:34;2.10;;;1.90;;
13712;SDS011;6928;50.546;7.120;2022-09-01T04:31:04;1.85;;;1.75;;
13712;SDS011;6928;50.546;7.120;2022-09-01T04:33:34;2.05;;;1.70;;
13712;SDS011;6928;50.546;7.120;2022-09-01T04:36:04;2.40;;;2.20;;
13712;SDS011;6928;50.546;7.120;2022-09-01T04:38:38;2.00;;;1.90;;
13712;SDS011;6928;50.546;7.120;2022-09-01T04:41:06;2.13;;;2.03;;
13712;SDS011;6928;50.546;7.120;2022-09-01T04:43:33;3.00;;;1.77;;
13712;SDS011;6928;50.546;7.120;2022-09-01T04:46:00;2.40;;;1.80;;
13712;SDS011;6928;50.546;7.120;2022-09-01T04:48:27;3.50;;;2.00;;
13712;SDS011;6928;50.546;7.120;2022-09-01T04:50:55;2.20;;;2.08;;
13712;SDS011;6928;50.546;7.120;2022-09-01T04:53:22;2.65;;;2.08;;
13712;SDS011;6928;50.546;7.120;2022-09-01T04:55:49;1.77;;;1.67;;
13712;SDS011;6928;50.546;7.120;2022-09-01T04:58:19;2.60;;;2.40;;
13712;SDS011;6928;50.546;7.120;2022-09-01T05:00:46;2.47;;;2.20;;
13712;SDS011;6928;50.546;7.120;2022-09-01T05:03:16;3.70;;;2.17;;
13712;SDS011;6928;50.546;7.120;2022-09-01T05:05:45;4.13;;;1.90;;
13712;SDS011;6928;50.546;7.120;2022-09-01T05:08:12;2.35;;;2.10;;
13712;SDS011;6928;50.546;7.120;2022-09-01T05:10:46;2.25;;;2.15;;
13712;SDS011;6928;50.546;7.120;2022-09-01T05:13:16;3.35;;;2.40;;
13712;SDS011;6928;50.546;7.120;2022-09-01T05:15:58;1.90;;;1.73;;
13712;SDS011;6928;50.546;7.120;2022-09-01T05:18:27;2.10;;;1.90;;
13712;SDS011;6928;50.546;7.120;2022-09-01T05:20:54;2.17;;;2.00;;
13712;SDS011;6928;50.546;7.120;2022-09-01T05:23:21;2.25;;;2.15;;
13712;SDS011;6928;50.546;7.120;2022-09-01T05:25:50;2.70;;;2.15;;
13712;SDS011;6928;50.546;7.120;2022-09-01T05:28:19;3.90;;;2.05;;
13712;SDS011;6928;50.546;7.120;2022-09-01T05:30:50;2.53;;;2.33;;
13712;SDS011;6928;50.546;7.120;2022-09-01T05:33:18;2.72;;;2.20;;
13712;SDS011;6928;50.546;7.120;2022-09-01T05:35:51;3.58;;;2.20;;
13712;SDS011;6928;50.546;7.120;2022-09-01T05:38:20;3.67;;;2.42;;
13712;SDS011;6928;50.546;7.120;2022-09-01T05:40:54;2.80;;;2.50;;
13712;SDS011;6928;50.546;7.120;2022-09-01T05:43:23;8.32;;;2.45;;
13712;SDS011;6928;50.546;7.120;2022-09-01T05:45:53;3.08;;;2.20;;
13712;SDS011;6928;50.546;7.120;2022-09-01T05:48:20;5.68;;;2.42;;
13712;SDS011;6928;50.546;7.120;2022-09-01T05:50:48;2.05;;;1.95;;
13712;SDS011;6928;50.546;7.120;2022-09-01T05:53:16;2.22;;;1.92;;
13712;SDS011;6928;50.546;7.120;2022-09-01T05:55:46;2.00;;;1.77;;
13712;SDS011;6928;50.546;7.120;2022-09-01T05:58:14;2.25;;;2.03;;
13712;SDS011;6928;50.546;7.120;2022-09-01T06:00:42;2.80;;;1.85;;
13712;SDS011;6928;50.546;7.120;2022-09-01T06:03:14;2.65;;;2.00;;
13712;SDS011;6928;50.546;7.120;2022-09-01T06:05:42;2.95;;;2.40;;
13712;SDS011;6928;50.546;7.120;2022-09-01T06:08:12;2.17;;;2.08;;
13712;SDS011;6928;50.546;7.120;2022-09-01T06:10:42;2.80;;;2.60;;
13712;SDS011;6928;50.546;7.120;2022-09-01T06:13:10;2.33;;;2.22;;
13712;SDS011;6928;50.546;7.120;2022-09-01T06:15:40;2.58;;;2.30;;
13712;SDS011;6928;50.546;7.120;2022-09-01T06:18:09;2.88;;;2.55;;
13712;SDS011;6928;50.546;7.120;2022-09-01T06:20:38;2.30;;;2.10;;
13712;SDS011;6928;50.546;7.120;2022-09-01T06:23:07;2.72;;;2.30;;
13712;SDS011;6928;50.546;7.120;2022-09-01T06:25:35;2.70;;;2.50;;
13712;SDS011;6928;50.546;7.120;2022-09-01T06:28:03;2.35;;;2.25;;
13712;SDS011;6928;50.546;7.120;2022-09-01T06:30:32;2.50;;;2.20;;
13712;SDS011;6928;50.546;7.120;2022-09-01T06:33:01;2.55;;;2.30;;
13712;SDS011;6928;50.546;7.120;2022-09-01T06:35:33;2.38;;;2.20;;
13712;SDS011;6928;50.546;7.120;2022-09-01T06:38:02;3.30;;;2.38;;
13712;SDS011;6928;50.546;7.120;2022-09-01T06:40:29;4.47;;;2.38;;
13712;SDS011;6928;50.546;7.120;2022-09-01T06:42:56;3.63;;;2.28;;
13712;SDS011;6928;50.546;7.120;2022-09-01T06:45:24;3.58;;;2.38;;
13712;SDS011;6928;50.546;7.120;2022-09-01T06:47:52;2.45;;;2.25;;
13712;SDS011;6928;50.546;7.120;2022-09-01T06:50:21;2.53;;;2.33;;
13712;SDS011;6928;50.546;7.120;2022-09-01T06:52:48;2.53;;;2.30;;
13712;SDS011;6928;50.546;7.120;2022-09-01T06:55:26;2.92;;;2.53;;
13712;SDS011;6928;50.546;7.120;2022-09-01T06:57:56;4.80;;;2.53;;
13712;SDS011;6928;50.546;7.120;2022-09-01T07:00:23;3.25;;;2.50;;
13712;SDS011;6928;50.546;7.120;2022-09-01T07:02:53;4.15;;;2.60;;
13712;SDS011;6928;50.546;7.120;2022-09-01T07:05:21;2.83;;;2.63;;
13712;SDS011;6928;50.546;7.120;2022-09-01T07:07:50;2.38;;;2.25;;
13712;SDS011;6928;50.546;7.120;2022-09-01T07:10:19;3.35;;;2.60;;
13712;SDS011;6928;50.546;7.120;2022-09-01T07:12:49;4.50;;;2.40;;
13712;SDS011;6928;50.546;7.120;2022-09-01T07:15:17;3.28;;;2.40;;
13712;SDS011;6928;50.546;7.120;2022-09-01T07:17:45;3.17;;;2.53;;
13712;SDS011;6928;50.546;7.120;2022-09-01T07:20:14;6.30;;;1.98;;
13712;SDS011;6928;50.546;7.120;2022-09-01T07:22:41;2.35;;;2.13;;
13712;SDS011;6928;50.546;7.120;2022-09-01T07:25:08;3.05;;;2.15;;
13712;SDS011;6928;50.546;7.120;2022-09-01T07:27:36;2.40;;;2.20;;
13712;SDS011;6928;50.546;7.120;2022-09-01T07:30:06;3.15;;;2.45;;
13712;SDS011;6928;50.546;7.120;2022-09-01T07:32:35;3.05;;;2.05;;
13712;SDS011;6928;50.546;7.120;2022-09-01T07:35:04;2.65;;;2.20;;
13712;SDS011;6928;50.546;7.120;2022-09-01T07:37:33;2.40;;;2.00;;
13712;SDS011;6928;50.546;7.120;2022-09-01T07:40:02;3.05;;;2.30;;
13712;SDS011;6928;50.546;7.120;2022-09-01T07:42:31;1.65;;;1.55;;
13712;SDS011;6928;50.546;7.120;2022-09-01T07:44:59;1.80;;;1.70;;
13712;SDS011;6928;50.546;7.120;2022-09-01T07:47:32;1.75;;;1.65;;
13712;SDS011;6928;50.546;7.120;2022-09-01T07:50:01;1.50;;;1.40;;
13712;SDS011;6928;50.546;7.120;2022-09-01T07:52:32;2.45;;;1.70;;
13712;SDS011;6928;50.546;7.120;2022-09-01T07:55:00;1.17;;;1.17;;
13712;SDS011;6928;50.546;7.120;2022-09-01T07:57:27;2.25;;;1.15;;
13712;SDS011;6928;50.546;7.120;2022-09-01T07:59:56;4.43;;;1.40;;
13712;SDS011;6928;50.546;7.120;2022-09-01T08:02:22;0.90;;;0.85;;
13712;SDS011;6928;50.546;7.120;2022-09-01T08:04:53;1.15;;;1.10;;
13712;SDS011;6928;50.546;7.120;2022-09-01T08:07:20;2.03;;;1.17;;
13712;SDS011;6928;50.546;7.120;2022-09-01T08:09:47;1.10;;;1.02;;
13712;SDS011;6928;50.546;7.120;2022-09-01T08:12:13;1.30;;;1.20;;
13712;SDS011;6928;50.546;7.120;2022-09-01T08:14:40;1.95;;;0.85;;
13712;SDS011;6928;50.546;7.120;2022-09-01T08:17:07;1.80;;;1.13;;
13712;SDS011;6928;50.546;7.120;2022-09-01T08:19:34;0.93;;;0.93;;
13712;SDS011;6928;50.546;7.120;2022-09-01T08:22:03;0.95;;;0.95;;
13712;SDS011;6928;50.546;7.120;2022-09-01T08:24:30;0.88;;;0.88;;
13712;SDS011;6928;50.546;7.120;2022-09-01T08:26:56;1.02;;;0.88;;
13712;SDS011;6928;50.546;7.120;2022-09-01T08:29:23;1.02;;;0.90;;
13712;SDS011;6928;50.546;7.120;2022-09-01T08:31:50;1.40;;;0.90;;
13712;SDS011;6928;50.546;7.120;2022-09-01T08:34:17;1.45;;;1.20;;
13712;SDS011;6928;50.546;7.120;2022-09-01T08:36:44;1.25;;;1.00;;
13712;SDS011;6928;50.546;7.120;2022-09-01T08:39:12;1.17;;;1.17;;
13712;SDS011;6928;50.546;7.120;2022-09-01T08:41:41;1.92;;;1.00;;
13712;SDS011;6928;50.546;7.120;2022-09-01T08:44:12;0.80;;;0.80;;
13712;SDS011;6928;50.546;7.120;2022-09-01T08:46:52;0.88;;;0.88;;
13712;SDS011;6928;50.546;7.120;2022-09-01T08:49:24;1.10;;;0.77;;
13712;SDS011;6928;50.546;7.120;2022-09-01T08:51:53;3.88;;;1.20;;
13712;SDS011;6928;50.546;7.120;2022-09-01T08:54:31;0.98;;;0.90;;
13712;SDS011;6928;50.546;7.120;2022-09-01T08:57:08;1.45;;;0.80;;
13712;SDS011;6928;50.546;7.120;2022-09-01T08:59:42;2.63;;;1.00;;
13712;SDS011;6928;50.546;7.120;2022-09-01T09:02:14;1.77;;;0.98;;
13712;SDS011;6928;50.546;7.120;2022-09-01T09:05:02;1.33;;;1.10;;
13712;SDS011;6928;50.546;7.120;2022-09-01T09:07:36;0.90;;;0.90;;
13712;SDS011;6928;50.546;7.120;2022-09-01T09:10:21;1.02;;;0.80;;
13712;SDS011;6928;50.546;7.120;2022-09-01T09:12:57;1.40;;;1.20;;
13712;SDS011;6928;50.546;7.120;2022-09-01T09:15:37;1.30;;;1.20;;
13712;SDS011;6928;50.546;7.120;2022-09-01T09:18:12;3.92;;;1.45;;
13712;SDS011;6928;50.546;7.120;2022-09-01T09:20:54;3.22;;;0.90;;
13712;SDS011;6928;50.546;7.120;2022-09-01T09:23:28;1.85;;;0.77;;
13712;SDS011;6928;50.546;7.120;2022-09-01T09:26:02;2.00;;;1.20;;
13712;SDS011;6928;50.546;7.120;2022-09-01T09:28:29;2.63;;;1.00;;
13712;SDS011;6928;50.546;7.120;2022-09-01T09:33:51;2.35;;;1.10;;
13712;SDS011;6928;50.546;7.120;2022-09-01T09:36:19;1.17;;;1.00;;
13712;SDS011;6928;50.546;7.120;2022-09-01T09:39:00;0.93;;;0.93;;
13712;SDS011;6928;50.546;7.120;2022-09-01T09:41:36;1.23;;;0.98;;
13712;SDS011;6928;50.546;7.120;2022-09-01T09:44:05;1.17;;;0.80;;
13712;SDS011;6928;50.546;7.120;2022-09-01T09:46:43;1.20;;;1.10;;
13712;SDS011;6928;50.546;7.120;2022-09-01T09:49:15;1.30;;;1.00;;
13712;SDS011;6928;50.546;7.120;2022-09-01T09:51:45;1.58;;;1.20;;
13712;SDS011;6928;50.546;7.120;2022-09-01T09:54:17;1.10;;;1.10;;
13712;SDS011;6928;50.546;7.120;2022-09-01T09:57:01;1.10;;;1.00;;
13712;SDS011;6928;50.546;7.120;2022-09-01T09:59:37;5.88;;;1.20;;
13712;SDS011;6928;50.546;7.120;2022-09-01T10:02:22;1.00;;;1.00;;
13712;SDS011;6928;50.546;7.120;2022-09-01T10:04:56;1.55;;;1.13;;
13712;SDS011;6928;50.546;7.120;2022-09-01T10:07:26;0.85;;;0.85;;
13712;SDS011;6928;50.546;7.120;2022-09-01T10:09:58;0.93;;;0.93;;
13712;SDS011;6928;50.546;7.120;2022-09-01T10:12:27;2.63;;;1.08;;
13712;SDS011;6928;50.546;7.120;2022-09-01T10:14:57;1.35;;;1.00;;
13712;SDS011;6928;50.546;7.120;2022-09-01T10:17:28;1.50;;;1.02;;
13712;SDS011;6928;50.546;7.120;2022-09-01T10:19:59;2.42;;;1.30;;
13712;SDS011;6928;50.546;7.120;2022-09-01T10:22:30;1.30;;;1.20;;
13712;SDS011;6928;50.546;7.120;2022-09-01T10:24:58;0.95;;;0.95;;
13712;SDS011;6928;50.546;7.120;2022-09-01T10:27:27;2.80;;;1.50;;
13712;SDS011;6928;50.546;7.120;2022-09-01T10:30:00;1.88;;;1.40;;
13712;SDS011;6928;50.546;7.120;2022-09-01T10:32:33;1.30;;;1.20;;
13712;SDS011;6928;50.546;7.120;2022-09-01T10:35:06;1.70;;;1.45;;
13712;SDS011;6928;50.546;7.120;2022-09-01T10:37:38;0.98;;;0.90;;
13712;SDS011;6928;50.546;7.120;2022-09-01T10:46:08;1.88;;;1.15;;
13712;SDS011;6928;50.546;7.120;2022-09-01T10:49:12;1.33;;;1.23;;
13712;SDS011;6928;50.546;7.120;2022-09-01T10:52:02;1.00;;;1.00;;
13712;SDS011;6928;50.546;7.120;2022-09-01T10:57:33;2.28;;;1.20;;
13712;SDS011;6928;50.546;7.120;2022-09-01T11:03:47;1.77;;;1.20;;
13712;SDS011;6928;50.546;7.120;2022-09-01T11:09:26;2.38;;;1.27;;
13712;SDS011;6928;50.546;7.120;2022-09-01T11:15:03;1.42;;;1.33;;
13712;SDS011;6928;50.546;7.120;2022-09-01T11:17:56;2.88;;;1.35;;
13712;SDS011;6928;50.546;7.120;2022-09-01T11:20:24;1.35;;;1.25;;
13712;SDS011;6928;50.546;7.120;2022-09-01T11:22:58;4.05;;;1.38;;
13712;SDS011;6928;50.546;7.120;2022-09-01T11:25:31;2.03;;;1.27;;
13712;SDS011;6928;50.546;7.120;2022-09-01T11:28:10;1.92;;;1.40;;
13712;SDS011;6928;50.546;7.120;2022-09-01T11:31:13;1.33;;;1.20;;
13712;SDS011;6928;50.546;7.120;2022-09-01T11:36:50;1.30;;;1.20;;
13712;SDS011;6928;50.546;7.120;2022-09-01T11:39:33;1.10;;;1.10;;
13712;SDS011;6928;50.546;7.120;2022-09-01T11:42:08;0.95;;;0.95;;
13712;SDS011;6928;50.546;7.120;2022-09-01T11:44:45;2.80;;;1.17;;
13712;SDS011;6928;50.546;7.120;2022-09-01T11:47:18;1.52;;;1.42;;
13712;SDS011;6928;50.546;7.120;2022-09-01T11:49:49;1.20;;;1.20;;
13712;SDS011;6928;50.546;7.120;2022-09-01T11:52:19;1.83;;;1.50;;
13712;SDS011;6928;50.546;7.120;2022-09-01T11:54:49;1.23;;;1.15;;
13712;SDS011;6928;50.546;7.120;2022-09-01T11:57:27;1.70;;;1.13;;
13712;SDS011;6928;50.546;7.120;2022-09-01T11:59:59;1.10;;;1.10;;
13712;SDS011;6928;50.546;7.120;2022-09-01T12:02:28;2.50;;;1.40;;
13712;SDS011;6928;50.546;7.120;2022-09-01T12:04:58;1.40;;;1.30;;
13712;SDS011;6928;50.546;7.120;2022-09-01T12:07:37;1.33;;;1.23;;
13712;SDS011;6928;50.546;7.120;2022-09-01T12:10:14;1.65;;;1.40;;
13712;SDS011;6928;50.546;7.120;2022-09-01T12:12:45;1.30;;;1.25;;
13712;SDS011;6928;50.546;7.120;2022-09-01T12:15:18;3.33;;;1.30;;
13712;SDS011;6928;50.546;7.120;2022-09-01T12:17:49;1.90;;;1.25;;
13712;SDS011;6928;50.546;7.120;2022-09-01T12:20:24;1.40;;;1.30;;
13712;SDS011;6928;50.546;7.120;2022-09-01T12:22:55;1.67;;;1.17;;
13712;SDS011;6928;50.546;7.120;2022-09-01T12:25:23;2.17;;;1.30;;
13712;SDS011;6928;50.546;7.120;2022-09-01T12:27:53;1.90;;;1.25;;
13712;SDS011;6928;50.546;7.120;2022-09-01T12:30:21;4.97;;;1.45;;
13712;SDS011;6928;50.546;7.120;2022-09-01T12:32:49;1.27;;;1.17;;
13712;SDS011;6928;50.546;7.120;2022-09-01T12:35:19;3.38;;;1.20;;
13712;SDS011;6928;50.546;7.120;2022-09-01T12:37:49;1.38;;;1.27;;
13712;SDS011;6928;50.546;7.120;2022-09-01T12:40:21;1.92;;;1.40;;
13712;SDS011;6928;50.546;7.120;2022-09-01T12:42:55;1.33;;;1.13;;
13712;SDS011;6928;50.546;7.120;2022-09-01T12:45:37;1.42;;;1.30;;
13712;SDS011;6928;50.546;7.120;2022-09-01T12:48:06;1.85;;;1.60;;
13712;SDS011;6928;50.546;7.120;2022-09-01T12:50:49;1.67;;;1.58;;
13712;SDS011;6928;50.546;7.120;2022-09-01T12:53:19;1.20;;;1.20;;
13712;SDS011;6928;50.546;7.120;2022-09-01T12:58:48;2.65;;;1.33;;
13712;SDS011;6928;50.546;7.120;2022-09-01T13:01:27;1.35;;;1.23;;
13712;SDS011;6928;50.546;7.120;2022-09-01T13:04:08;2.60;;;1.30;;
13712;SDS011;6928;50.546;7.120;2022-09-01T13:06:48;1.35;;;1.25;;
13712;SDS011;6928;50.546;7.120;2022-09-01T13:09:16;2.30;;;1.33;;
13712;SDS011;6928;50.546;7.120;2022-09-01T13:11:43;1.00;;;1.00;;
13712;SDS011;6928;50.546;7.120;2022-09-01T13:14:12;1.65;;;1.55;;
13712;SDS011;6928;50.546;7.120;2022-09-01T13:16:41;7.88;;;1.15;;
13712;SDS011;6928;50.546;7.120;2022-09-01T13:19:08;1.40;;;1.30;;
13712;SDS011;6928;50.546;7.120;2022-09-01T13:21:35;1.98;;;1.25;;
13712;SDS011;6928;50.546;7.120;2022-09-01T13:24:02;1.50;;;1.40;;
13712;SDS011;6928;50.546;7.120;2022-09-01T13:26:31;1.45;;;1.35;;
13712;SDS011;6928;50.546;7.120;2022-09-01T13:28:58;1.38;;;1.27;;
13712;SDS011;6928;50.546;7.120;2022-09-01T13:31:26;1.30;;;1.20;;
13712;SDS011;6928;50.546;7.120;2022-09-01T13:33:56;2.10;;;1.30;;
13712;SDS011;6928;50.546;7.120;2022-09-01T13:36:24;1.88;;;1.27;;
13712;SDS011;6928;50.546;7.120;2022-09-01T13:38:51;1.27;;;1.10;;
13712;SDS011;6928;50.546;7.120;2022-09-01T13:41:17;2.53;;;1.50;;
13712;SDS011;6928;50.546;7.120;2022-09-01T13:43:44;3.00;;;1.33;;
13712;SDS011;6928;50.546;7.120;2022-09-01T13:46:12;1.42;;;1.33;;
13712;SDS011;6928;50.546;7.120;2022-09-01T13:48:39;1.85;;;1.20;;
13712;SDS011;6928;50.546;7.120;2022-09-01T13:51:07;2.45;;;1.40;;
13712;SDS011;6928;50.546;7.120;2022-09-01T13:53:34;1.45;;;1.35;;
13712;SDS011;6928;50.546;7.120;2022-09-01T13:56:02;1.38;;;1.27;;
13712;SDS011;6928;50.546;7.120;2022-09-01T13:58:29;1.25;;;1.23;;
13712;SDS011;6928;50.546;7.120;2022-09-01T14:00:56;1.30;;;1.20;;
13712;SDS011;6928;50.546;7.120;2022-09-01T14:03:23;1.83;;;1.20;;
13712;SDS011;6928;50.546;7.120;2022-09-01T14:05:50;1.80;;;1.10;;
13712;SDS011;6928;50.546;7.120;2022-09-01T14:08:19;1.15;;;1.13;;
13712;SDS011;6928;50.546;7.120;2022-09-01T14:10:48;1.60;;;1.50;;
13712;SDS011;6928;50.546;7.120;2022-09-01T14:13:18;1.30;;;1.20;;
13712;SDS011;6928;50.546;7.120;2022-09-01T14:15:46;1.20;;;1.20;;
13712;SDS011;6928;50.546;7.120;2022-09-01T14:18:14;1.95;;;1.35;;
13712;SDS011;6928;50.546;7.120;2022-09-01T14:20:43;1.30;;;1.20;;
13712;SDS011;6928;50.546;7.120;2022-09-01T14:23:13;1.30;;;1.20;;
13712;SDS011;6928;50.546;7.120;2022-09-01T14:25:43;2.40;;;1.40;;
13712;SDS011;6928;50.546;7.120;2022-09-01T14:28:13;1.35;;;1.23;;
13712;SDS011;6928;50.546;7.120;2022-09-01T14:30:41;2.60;;;1.38;;
13712;SDS011;6928;50.546;7.120;2022-09-01T14:33:09;3.40;;;1.48;;
13712;SDS011;6928;50.546;7.120;2022-09-01T14:35:37;1.30;;;1.17;;
13712;SDS011;6928;50.546;7.120;2022-09-01T14:38:07;4.68;;;1.85;;
13712;SDS011;6928;50.546;7.120;2022-09-01T14:40:34;2.50;;;1.20;;
13712;SDS011;6928;50.546;7.120;2022-09-01T14:43:04;1.63;;;1.40;;
13712;SDS011;6928;50.546;7.120;2022-09-01T14:45:33;2.67;;;1.20;;
13712;SDS011;6928;50.546;7.120;2022-09-01T14:48:01;1.80;;;1.23;;
13712;SDS011;6928;50.546;7.120;2022-09-01T14:50:29;1.42;;;1.33;;
13712;SDS011;6928;50.546;7.120;2022-09-01T14:52:58;3.30;;;1.38;;
13712;SDS011;6928;50.546;7.120;2022-09-01T14:55:27;2.88;;;1.33;;
13712;SDS011;6928;50.546;7.120;2022-09-01T14:57:55;1.20;;;1.10;;
13712;SDS011;6928;50.546;7.120;2022-09-01T15:00:26;2.25;;;1.20;;
13712;SDS011;6928;50.546;7.120;2022-09-01T15:02:54;1.58;;;0.90;;
13712;SDS011;6928;50.546;7.120;2022-09-01T15:05:21;1.65;;;1.13;;
13712;SDS011;6928;50.546;7.120;2022-09-01T15:07:49;0.90;;;0.90;;
13712;SDS011;6928;50.546;7.120;2022-09-01T15:10:17;1.20;;;1.10;;
13712;SDS011;6928;50.546;7.120;2022-09-01T15:12:46;1.00;;;1.00;;
13712;SDS011;6928;50.546;7.120;2022-09-01T15:15:14;1.30;;;1.20;;
13712;SDS011;6928;50.546;7.120;2022-09-01T15:17:44;1.15;;;1.10;;
13712;SDS011;6928;50.546;7.120;2022-09-01T15:20:11;5.28;;;1.20;;
13712;SDS011;6928;50.546;7.120;2022-09-01T15:22:55;1.00;;;1.00;;
13712;SDS011;6928;50.546;7.120;2022-09-01T15:25:22;1.52;;;1.10;;
13712;SDS011;6928;50.546;7.120;2022-09-01T15:27:49;1.00;;;0.90;;
13712;SDS011;6928;50.546;7.120;2022-09-01T15:30:16;1.08;;;1.08;;
13712;SDS011;6928;50.546;7.120;2022-09-01T15:32:47;3.60;;;1.00;;
13712;SDS011;6928;50.546;7.120;2022-09-01T15:35:16;1.65;;;1.27;;
13712;SDS011;6928;50.546;7.120;2022-09-01T15:37:44;2.05;;;1.05;;
13712;SDS011;6928;50.546;7.120;2022-09-01T15:40:12;0.98;;;0.82;;
13712;SDS011;6928;50.546;7.120;2022-09-01T15:42:39;0.90;;;0.90;;
13712;SDS011;6928;50.546;7.120;2022-09-01T15:45:06;1.27;;;0.98;;
13712;SDS011;6928;50.546;7.120;2022-09-01T15:47:38;0.90;;;0.90;;